Time;durP1;ratioP1;P1;durP2;ratioP2;P2;SDS_P1;SDS_P2;PMS_P1;PMS_P2;Temp;Humidity;BMP_temperature;BMP_pressure;BME280_temperature;BME280_humidity;BME280_pressure;Samples;Min_cycle;Max_cycle;Signal;HPM_P1;HPM_P2
2022/01/06 00:01:26;;;;;;;10.17;3.67;;;;;;;;;;5088708;28;20211;-56
2022/01/06 00:03:54;;;;;;;7.90;4.07;;;;;;;;;;5089895;28;20176;-56
2022/01/06 00:06:21;;;;;;;8.57;3.00;;;;;;;;;;5088892;28;20191;-56
2022/01/06 00:08:47;;;;;;;9.17;3.53;;;;;;;;;;5089574;28;20489;-56
2022/01/06 00:11:14;;;;;;;11.47;3.60;;;;;;;;;;5090255;28;20172;-56
2022/01/06 00:13:53;;;;;;;12.23;4.57;;;;;;;;;;5090621;28;20266;-56
2022/01/06 00:16:35;;;;;;;17.33;3.50;;;;;;;;;;5089754;28;20184;-55
2022/01/06 00:24:13;;;;;;;8.70;3.63;;;;;;;;;;5087801;28;20248;-56
2022/01/06 00:26:39;;;;;;;11.37;3.70;;;;;;;;;;5090291;28;20184;-56
2022/01/06 00:29:05;;;;;;;17.10;3.73;;;;;;;;;;5090294;28;20170;-56
2022/01/06 00:31:32;;;;;;;9.07;3.97;;;;;;;;;;5070498;28;20206;-56
2022/01/06 00:33:58;;;;;;;6.93;3.40;;;;;;;;;;5089531;28;20179;-56
2022/01/06 00:36:24;;;;;;;8.47;3.90;;;;;;;;;;5071652;28;20195;-56
2022/01/06 00:38:50;;;;;;;14.03;4.30;;;;;;;;;;5089115;28;20180;-56
2022/01/06 00:41:16;;;;;;;7.73;4.17;;;;;;;;;;5083186;28;20653;-56
2022/01/06 00:43:42;;;;;;;9.87;3.43;;;;;;;;;;5088731;28;20183;-56
2022/01/06 00:46:08;;;;;;;11.33;3.40;;;;;;;;;;5080258;28;20534;-56
2022/01/06 00:48:35;;;;;;;14.40;3.57;;;;;;;;;;5088777;28;20282;-56
2022/01/06 00:51:01;;;;;;;11.60;3.53;;;;;;;;;;5086366;28;20207;-56
2022/01/06 00:53:27;;;;;;;16.67;4.37;;;;;;;;;;5088990;28;20211;-56
2022/01/06 00:55:53;;;;;;;11.00;3.93;;;;;;;;;;5088734;28;20176;-56
2022/01/06 00:58:19;;;;;;;12.77;3.27;;;;;;;;;;5088986;28;20179;-56
2022/01/06 01:00:45;;;;;;;15.30;4.10;;;;;;;;;;5088284;28;20218;-56
2022/01/06 01:03:15;;;;;;;11.37;3.47;;;;;;;;;;5089010;28;20179;-56
2022/01/06 01:05:42;;;;;;;7.63;3.50;;;;;;;;;;5089270;28;20180;-56
2022/01/06 01:08:09;;;;;;;8.80;3.40;;;;;;;;;;5089394;28;20200;-55
2022/01/06 01:10:36;;;;;;;17.07;4.80;;;;;;;;;;5089408;28;20180;-56
2022/01/06 01:13:02;;;;;;;8.13;3.93;;;;;;;;;;5089082;28;20184;-55
2022/01/06 01:15:28;;;;;;;13.70;3.60;;;;;;;;;;5087922;28;20179;-55
2022/01/06 01:18:04;;;;;;;14.23;3.93;;;;;;;;;;5089227;28;20184;-55
2022/01/06 01:20:30;;;;;;;9.50;3.20;;;;;;;;;;5087843;28;20288;-56
2022/01/06 01:22:56;;;;;;;11.40;2.90;;;;;;;;;;5089241;28;20241;-56
2022/01/06 01:25:22;;;;;;;9.33;3.03;;;;;;;;;;5088322;28;20183;-56
2022/01/06 01:27:48;;;;;;;6.40;3.00;;;;;;;;;;5078668;28;20184;-56
2022/01/06 01:30:14;;;;;;;9.97;3.60;;;;;;;;;;5088393;28;20171;-55
2022/01/06 01:32:45;;;;;;;12.40;3.20;;;;;;;;;;5087808;28;20180;-55
2022/01/06 01:35:11;;;;;;;13.17;3.20;;;;;;;;;;5088598;28;20205;-56
2022/01/06 01:37:38;;;;;;;7.27;2.57;;;;;;;;;;5088845;28;20172;-56
2022/01/06 01:40:06;;;;;;;10.13;3.33;;;;;;;;;;5085679;28;20211;-56
2022/01/06 01:42:32;;;;;;;7.30;3.20;;;;;;;;;;5069319;28;20514;-56
2022/01/06 01:44:58;;;;;;;9.40;2.80;;;;;;;;;;5088456;28;20184;-56
2022/01/06 01:47:45;;;;;;;12.70;3.40;;;;;;;;;;5087133;28;20167;-56
2022/01/06 01:50:13;;;;;;;9.20;3.13;;;;;;;;;;5085170;28;20623;-56
2022/01/06 01:52:50;;;;;;;6.80;2.87;;;;;;;;;;5088815;28;20183;-56
2022/01/06 01:55:17;;;;;;;6.77;2.80;;;;;;;;;;5088783;28;20243;-56
2022/01/06 01:57:44;;;;;;;4.10;2.20;;;;;;;;;;5087643;28;20203;-56
2022/01/06 02:00:11;;;;;;;6.47;3.20;;;;;;;;;;5082129;28;20210;-56
2022/01/06 02:02:37;;;;;;;10.77;2.87;;;;;;;;;;5086943;28;20245;-56
2022/01/06 02:05:04;;;;;;;8.43;3.13;;;;;;;;;;5087613;28;20179;-56
2022/01/06 02:07:30;;;;;;;9.63;2.97;;;;;;;;;;5088448;28;20187;-56
2022/01/06 02:09:56;;;;;;;8.30;3.03;;;;;;;;;;5087158;28;20553;-56
2022/01/06 02:12:23;;;;;;;6.73;3.57;;;;;;;;;;5086522;28;20264;-56
2022/01/06 02:14:49;;;;;;;14.37;3.50;;;;;;;;;;5087483;28;20240;-56
2022/01/06 02:17:15;;;;;;;7.63;2.63;;;;;;;;;;5087581;28;20194;-56
2022/01/06 02:19:45;;;;;;;7.70;3.07;;;;;;;;;;5086829;28;20196;-56
2022/01/06 02:22:11;;;;;;;8.90;2.70;;;;;;;;;;5082229;28;20708;-56
2022/01/06 02:24:37;;;;;;;8.43;2.50;;;;;;;;;;5084117;28;20184;-56
2022/01/06 02:27:03;;;;;;;7.37;2.93;;;;;;;;;;5087965;28;20198;-56
2022/01/06 02:29:29;;;;;;;15.30;3.70;;;;;;;;;;5085441;28;20470;-56
2022/01/06 02:31:58;;;;;;;7.17;3.07;;;;;;;;;;5082759;28;20285;-56
2022/01/06 02:34:24;;;;;;;10.27;3.10;;;;;;;;;;5087516;28;20694;-56
2022/01/06 02:36:50;;;;;;;14.23;3.23;;;;;;;;;;5087631;28;20716;-56
2022/01/06 02:39:16;;;;;;;8.73;2.93;;;;;;;;;;5084824;28;20176;-56
2022/01/06 02:41:42;;;;;;;6.87;2.57;;;;;;;;;;5083552;28;20525;-56
2022/01/06 02:44:08;;;;;;;10.13;2.97;;;;;;;;;;5086876;28;20182;-56
2022/01/06 02:46:39;;;;;;;9.47;3.03;;;;;;;;;;5086518;28;20188;-56
2022/01/06 02:49:05;;;;;;;10.17;2.37;;;;;;;;;;5082522;28;20184;-56
2022/01/06 02:51:31;;;;;;;10.47;3.03;;;;;;;;;;5086416;28;20588;-56
2022/01/06 02:53:57;;;;;;;9.20;2.90;;;;;;;;;;5077744;28;20683;-56
2022/01/06 02:56:23;;;;;;;12.70;3.47;;;;;;;;;;5049344;28;20204;-56
2022/01/06 02:58:49;;;;;;;10.67;3.13;;;;;;;;;;5067706;28;20223;-56
2022/01/06 03:01:16;;;;;;;5.37;2.90;;;;;;;;;;5058360;28;20683;-56
2022/01/06 03:03:42;;;;;;;15.40;3.23;;;;;;;;;;5066328;28;20192;-56
2022/01/06 03:06:08;;;;;;;10.40;2.83;;;;;;;;;;5072739;28;20580;-56
2022/01/06 03:08:34;;;;;;;7.30;2.90;;;;;;;;;;5063559;28;20180;-56
2022/01/06 03:11:00;;;;;;;12.73;3.03;;;;;;;;;;5076255;28;20510;-56
2022/01/06 03:13:26;;;;;;;8.60;3.17;;;;;;;;;;5068650;28;20186;-56
2022/01/06 03:15:52;;;;;;;8.30;2.63;;;;;;;;;;5073640;28;20180;-56
2022/01/06 03:18:18;;;;;;;10.73;2.67;;;;;;;;;;5073433;28;20183;-56
2022/01/06 03:20:44;;;;;;;9.47;2.30;;;;;;;;;;5055686;28;20535;-56
2022/01/06 03:23:10;;;;;;;6.83;2.17;;;;;;;;;;5074706;28;20196;-56
2022/01/06 03:25:36;;;;;;;8.33;2.57;;;;;;;;;;5072371;28;20249;-56
2022/01/06 03:28:02;;;;;;;10.33;2.40;;;;;;;;;;5075046;28;20203;-56
2022/01/06 03:30:28;;;;;;;12.53;3.17;;;;;;;;;;5063807;28;20583;-56
2022/01/06 03:32:55;;;;;;;8.33;2.53;;;;;;;;;;5074452;28;20183;-56
2022/01/06 03:35:22;;;;;;;9.17;2.40;;;;;;;;;;5077003;28;20414;-56
2022/01/06 03:37:48;;;;;;;8.23;3.20;;;;;;;;;;5074285;28;20215;-56
2022/01/06 03:40:14;;;;;;;6.57;2.60;;;;;;;;;;5070719;28;20230;-56
2022/01/06 03:42:40;;;;;;;9.37;3.30;;;;;;;;;;5073217;28;20655;-56
2022/01/06 03:45:08;;;;;;;6.57;3.33;;;;;;;;;;5057920;28;20188;-56
2022/01/06 03:47:34;;;;;;;7.50;2.37;;;;;;;;;;5072073;28;20177;-56
2022/01/06 03:50:00;;;;;;;7.27;2.70;;;;;;;;;;5073397;28;20176;-56
2022/01/06 03:52:26;;;;;;;9.60;2.00;;;;;;;;;;5074244;28;20180;-55
2022/01/06 03:54:52;;;;;;;10.03;3.20;;;;;;;;;;5094928;28;20219;-56
2022/01/06 03:57:18;;;;;;;8.97;3.07;;;;;;;;;;5091370;28;20210;-56
2022/01/06 03:59:45;;;;;;;10.70;3.13;;;;;;;;;;5093348;28;20616;-55
2022/01/06 04:02:12;;;;;;;9.57;2.63;;;;;;;;;;5093000;28;20188;-56
2022/01/06 04:04:38;;;;;;;7.57;2.00;;;;;;;;;;5098888;28;20656;-55
2022/01/06 04:07:04;;;;;;;13.13;2.93;;;;;;;;;;5087522;28;20172;-55
2022/01/06 04:09:30;;;;;;;10.63;2.90;;;;;;;;;;5097573;28;20321;-55
2022/01/06 04:11:56;;;;;;;21.20;2.93;;;;;;;;;;5093050;28;20187;-56
2022/01/06 04:14:22;;;;;;;12.60;2.43;;;;;;;;;;5075410;28;20199;-56
2022/01/06 04:16:48;;;;;;;7.10;4.70;;;;;;;;;;5091415;28;20183;-56
2022/01/06 04:19:14;;;;;;;6.87;2.20;;;;;;;;;;5094450;28;20187;-55
2022/01/06 04:21:40;;;;;;;9.57;2.73;;;;;;;;;;5100788;28;20267;-56
2022/01/06 04:24:06;;;;;;;11.47;3.23;;;;;;;;;;5096629;28;20659;-56
2022/01/06 04:26:32;;;;;;;10.57;2.50;;;;;;;;;;5090113;28;20184;-56
2022/01/06 04:28:58;;;;;;;10.70;2.90;;;;;;;;;;5091345;28;20538;-56
2022/01/06 04:31:24;;;;;;;7.33;2.60;;;;;;;;;;5087774;28;20180;-56
2022/01/06 04:33:51;;;;;;;6.87;2.30;;;;;;;;;;5098375;28;20179;-56
2022/01/06 04:36:18;;;;;;;5.33;2.80;;;;;;;;;;5094831;28;20901;-56
2022/01/06 04:38:44;;;;;;;14.87;3.40;;;;;;;;;;5090863;28;20181;-55
2022/01/06 04:41:10;;;;;;;7.57;2.53;;;;;;;;;;5092130;28;20195;-56
2022/01/06 04:43:36;;;;;;;6.50;2.03;;;;;;;;;;5093019;28;20240;-56
2022/01/06 04:46:02;;;;;;;13.47;3.20;;;;;;;;;;5086133;28;20176;-56
2022/01/06 04:48:29;;;;;;;9.87;3.00;;;;;;;;;;5088270;28;20183;-57
2022/01/06 04:50:55;;;;;;;9.53;3.33;;;;;;;;;;5089588;28;20199;-56
2022/01/06 04:53:21;;;;;;;5.73;2.20;;;;;;;;;;5101834;28;20234;-56
2022/01/06 04:55:48;;;;;;;7.03;2.10;;;;;;;;;;5075974;28;20185;-56
2022/01/06 04:58:14;;;;;;;6.87;2.20;;;;;;;;;;5073791;28;20169;-56
2022/01/06 05:00:40;;;;;;;12.00;2.93;;;;;;;;;;5069004;28;20250;-56
2022/01/06 05:03:06;;;;;;;5.67;2.37;;;;;;;;;;5073793;28;20173;-56
2022/01/06 05:05:32;;;;;;;6.20;2.47;;;;;;;;;;5068524;28;20278;-55
2022/01/06 05:07:58;;;;;;;6.80;1.80;;;;;;;;;;5069372;28;20675;-56
2022/01/06 05:10:24;;;;;;;10.47;2.87;;;;;;;;;;5071127;28;20221;-56
2022/01/06 05:12:50;;;;;;;5.43;2.33;;;;;;;;;;5074748;28;20189;-56
2022/01/06 05:15:16;;;;;;;11.40;2.23;;;;;;;;;;5073610;28;20459;-56
2022/01/06 05:17:42;;;;;;;8.23;2.60;;;;;;;;;;5074273;28;20655;-56
2022/01/06 05:20:09;;;;;;;8.57;2.53;;;;;;;;;;5049873;28;20467;-55
2022/01/06 05:22:41;;;;;;;13.80;2.93;;;;;;;;;;5068533;28;20204;-56
2022/01/06 05:25:07;;;;;;;9.83;3.20;;;;;;;;;;5058835;28;20633;-55
2022/01/06 05:27:33;;;;;;;7.37;2.03;;;;;;;;;;5067603;28;20204;-56
2022/01/06 05:29:59;;;;;;;10.33;3.00;;;;;;;;;;5068745;28;20215;-57
2022/01/06 05:32:26;;;;;;;6.33;2.30;;;;;;;;;;5067720;28;20291;-56
2022/01/06 05:34:52;;;;;;;6.60;2.93;;;;;;;;;;5068306;28;20211;-55
2022/01/06 05:37:18;;;;;;;7.50;2.60;;;;;;;;;;5079340;28;20551;-55
2022/01/06 05:39:44;;;;;;;6.80;2.93;;;;;;;;;;5070336;28;20232;-55
2022/01/06 05:42:13;;;;;;;9.27;2.10;;;;;;;;;;5069029;28;20176;-56
2022/01/06 05:44:40;;;;;;;9.50;2.47;;;;;;;;;;5067607;28;20204;-56
2022/01/06 05:47:06;;;;;;;6.43;2.70;;;;;;;;;;5066952;28;20230;-56
2022/01/06 05:49:33;;;;;;;6.37;2.40;;;;;;;;;;5050657;28;20188;-56
2022/01/06 05:51:59;;;;;;;4.30;2.17;;;;;;;;;;5068485;28;20208;-56
2022/01/06 05:54:25;;;;;;;4.97;2.53;;;;;;;;;;5077955;28;20615;-56
2022/01/06 05:56:51;;;;;;;9.23;2.23;;;;;;;;;;5069623;28;20705;-56
2022/01/06 05:59:17;;;;;;;6.70;2.63;;;;;;;;;;5067297;28;20222;-56
2022/01/06 06:01:45;;;;;;;5.30;2.73;;;;;;;;;;5079473;28;20285;-55
2022/01/06 06:04:12;;;;;;;8.27;2.00;;;;;;;;;;5069732;28;20180;-56
2022/01/06 06:06:38;;;;;;;5.83;2.13;;;;;;;;;;5078264;28;20425;-56
2022/01/06 06:09:04;;;;;;;9.00;2.53;;;;;;;;;;5067849;28;20268;-56
2022/01/06 06:11:30;;;;;;;6.50;2.20;;;;;;;;;;5070086;28;20187;-56
2022/01/06 06:13:56;;;;;;;6.53;3.07;;;;;;;;;;5070720;28;20627;-55
2022/01/06 06:16:22;;;;;;;9.97;2.93;;;;;;;;;;5078468;28;20191;-56
2022/01/06 06:18:48;;;;;;;8.53;2.20;;;;;;;;;;5083398;28;20972;-56
2022/01/06 06:21:14;;;;;;;7.73;2.40;;;;;;;;;;5067382;28;20200;-55
2022/01/06 06:23:42;;;;;;;7.40;2.30;;;;;;;;;;5067793;28;20177;-56
2022/01/06 06:26:08;;;;;;;5.33;2.10;;;;;;;;;;5073995;28;20271;-56
2022/01/06 06:28:34;;;;;;;6.77;2.17;;;;;;;;;;5068917;28;20185;-56
2022/01/06 06:31:00;;;;;;;5.83;2.53;;;;;;;;;;5066988;28;20257;-56
2022/01/06 06:33:26;;;;;;;6.63;2.97;;;;;;;;;;5074778;28;20283;-55
2022/01/06 06:35:52;;;;;;;5.83;2.00;;;;;;;;;;5067641;28;20191;-55
2022/01/06 06:38:18;;;;;;;4.13;1.87;;;;;;;;;;5071002;28;20200;-55
2022/01/06 06:40:44;;;;;;;6.63;2.00;;;;;;;;;;5064359;28;20582;-56
2022/01/06 06:43:13;;;;;;;8.03;2.07;;;;;;;;;;5064661;28;20177;-55
2022/01/06 06:45:40;;;;;;;6.00;1.80;;;;;;;;;;5066909;28;20532;-56
2022/01/06 06:48:06;;;;;;;5.10;1.90;;;;;;;;;;5066029;28;20685;-55
2022/01/06 06:50:32;;;;;;;6.90;2.47;;;;;;;;;;5064892;28;20675;-56
2022/01/06 06:52:58;;;;;;;7.90;2.47;;;;;;;;;;5064900;28;20426;-56
2022/01/06 06:55:24;;;;;;;5.27;2.10;;;;;;;;;;5064399;28;20189;-56
2022/01/06 06:57:50;;;;;;;7.27;2.10;;;;;;;;;;5063199;28;20261;-55
2022/01/06 07:00:16;;;;;;;5.43;2.50;;;;;;;;;;5053841;28;20516;-55
2022/01/06 07:02:43;;;;;;;5.53;2.17;;;;;;;;;;5055185;28;20416;-56
2022/01/06 07:05:09;;;;;;;5.53;2.27;;;;;;;;;;5060656;28;20419;-56
2022/01/06 07:07:35;;;;;;;5.07;2.20;;;;;;;;;;5067042;28;20184;-56
2022/01/06 07:10:02;;;;;;;8.90;2.10;;;;;;;;;;5064595;28;20208;-56
2022/01/06 07:12:29;;;;;;;9.73;2.30;;;;;;;;;;5065658;28;21107;-56
2022/01/06 07:14:55;;;;;;;2.73;1.87;;;;;;;;;;5058497;28;20426;-56
2022/01/06 07:17:21;;;;;;;5.50;2.60;;;;;;;;;;5067184;28;20188;-56
2022/01/06 07:19:47;;;;;;;7.37;2.23;;;;;;;;;;5066671;28;20180;-56
2022/01/06 07:22:13;;;;;;;6.07;2.67;;;;;;;;;;5052330;28;20485;-56
2022/01/06 07:24:39;;;;;;;5.47;2.57;;;;;;;;;;5057077;28;20601;-56
2022/01/06 07:27:05;;;;;;;8.40;2.53;;;;;;;;;;5061075;28;20188;-55
2022/01/06 07:29:31;;;;;;;8.23;2.37;;;;;;;;;;5047429;28;20180;-56
2022/01/06 07:31:57;;;;;;;9.07;2.20;;;;;;;;;;5068906;28;20216;-56
2022/01/06 07:34:23;;;;;;;4.83;2.03;;;;;;;;;;5069640;28;20640;-55
2022/01/06 07:36:50;;;;;;;4.73;2.00;;;;;;;;;;5061298;28;20198;-55
2022/01/06 07:39:16;;;;;;;10.23;2.40;;;;;;;;;;5047275;28;20592;-55
2022/01/06 07:41:42;;;;;;;8.47;2.77;;;;;;;;;;5066428;28;20465;-55
2022/01/06 07:44:08;;;;;;;7.73;2.80;;;;;;;;;;5064187;28;20176;-55
2022/01/06 07:46:37;;;;;;;7.00;2.10;;;;;;;;;;5066102;28;20180;-55
2022/01/06 07:49:04;;;;;;;5.43;2.17;;;;;;;;;;5057522;28;20230;-56
2022/01/06 07:51:31;;;;;;;5.27;2.30;;;;;;;;;;5064866;28;20410;-56
2022/01/06 07:53:58;;;;;;;3.50;2.30;;;;;;;;;;5061927;28;20474;-55
2022/01/06 07:56:24;;;;;;;9.73;2.63;;;;;;;;;;5065586;28;20460;-55
2022/01/06 07:58:50;;;;;;;4.70;2.07;;;;;;;;;;5061753;28;20203;-55
2022/01/06 08:01:16;;;;;;;4.33;2.43;;;;;;;;;;5060948;28;20458;-55
2022/01/06 08:03:42;;;;;;;5.10;2.30;;;;;;;;;;5069066;28;20639;-56
2022/01/06 08:06:09;;;;;;;5.67;2.67;;;;;;;;;;5068505;28;20430;-56
2022/01/06 08:08:35;;;;;;;6.37;2.10;;;;;;;;;;5069068;28;20422;-56
2022/01/06 08:11:01;;;;;;;7.77;2.50;;;;;;;;;;5056135;28;20432;-56
2022/01/06 08:13:27;;;;;;;5.90;2.90;;;;;;;;;;5067051;28;20425;-56
2022/01/06 08:15:53;;;;;;;6.63;2.23;;;;;;;;;;5070024;28;20497;-56
2022/01/06 08:18:19;;;;;;;3.57;2.23;;;;;;;;;;5067454;28;20448;-56
2022/01/06 08:20:45;;;;;;;5.90;2.20;;;;;;;;;;5062708;28;20813;-56
2022/01/06 08:23:11;;;;;;;10.90;2.43;;;;;;;;;;5062725;28;20423;-56
2022/01/06 08:25:38;;;;;;;3.80;2.00;;;;;;;;;;5061609;28;20181;-55
2022/01/06 08:28:04;;;;;;;4.63;2.47;;;;;;;;;;5066643;28;20314;-55
2022/01/06 08:30:30;;;;;;;3.93;2.43;;;;;;;;;;5065081;28;20508;-56
2022/01/06 08:32:56;;;;;;;5.97;2.47;;;;;;;;;;5065687;28;20586;-55
2022/01/06 08:35:23;;;;;;;11.13;3.47;;;;;;;;;;5060388;28;20953;-55
2022/01/06 08:37:49;;;;;;;7.67;2.50;;;;;;;;;;5065540;28;20580;-56
2022/01/06 08:40:15;;;;;;;6.87;2.60;;;;;;;;;;5068103;28;20549;-55
2022/01/06 08:42:41;;;;;;;5.97;2.57;;;;;;;;;;5066908;28;20415;-55
2022/01/06 08:45:07;;;;;;;6.97;3.10;;;;;;;;;;5066305;28;20995;-55
2022/01/06 08:47:34;;;;;;;6.43;2.63;;;;;;;;;;5062782;28;20484;-55
2022/01/06 08:50:00;;;;;;;4.93;2.77;;;;;;;;;;5049237;28;20439;-55
2022/01/06 08:52:26;;;;;;;5.53;3.13;;;;;;;;;;5070157;28;20314;-55
2022/01/06 08:54:52;;;;;;;10.33;3.30;;;;;;;;;;5071151;28;21066;-55
2022/01/06 08:57:18;;;;;;;6.57;2.57;;;;;;;;;;5084644;28;20492;-55
2022/01/06 08:59:44;;;;;;;9.17;3.27;;;;;;;;;;5093799;28;20187;-55
2022/01/06 09:02:10;;;;;;;3.93;2.57;;;;;;;;;;5088360;28;20422;-55
2022/01/06 09:04:37;;;;;;;8.87;4.13;;;;;;;;;;5071772;28;20421;-55
2022/01/06 09:07:03;;;;;;;4.23;3.00;;;;;;;;;;5089679;28;20417;-55
2022/01/06 09:09:30;;;;;;;6.40;2.90;;;;;;;;;;5072018;28;20410;-55
2022/01/06 09:11:56;;;;;;;7.63;3.43;;;;;;;;;;5089226;28;20414;-55
2022/01/06 09:14:25;;;;;;;6.57;3.10;;;;;;;;;;5089920;28;20410;-55
2022/01/06 09:16:54;;;;;;;8.20;3.70;;;;;;;;;;5089273;28;20398;-55
2022/01/06 09:19:20;;;;;;;8.90;2.50;;;;;;;;;;5088618;28;20195;-55
2022/01/06 09:21:46;;;;;;;6.30;2.80;;;;;;;;;;5089982;28;20204;-55
2022/01/06 09:24:12;;;;;;;9.27;3.57;;;;;;;;;;5073380;28;20424;-55
2022/01/06 09:26:38;;;;;;;6.23;3.33;;;;;;;;;;5086055;28;20413;-55
2022/01/06 09:29:05;;;;;;;12.33;3.60;;;;;;;;;;5089922;28;20523;-55
2022/01/06 09:31:33;;;;;;;6.70;4.17;;;;;;;;;;5088727;28;20402;-55
2022/01/06 09:33:59;;;;;;;13.33;4.07;;;;;;;;;;5089859;28;20409;-55
2022/01/06 09:36:27;;;;;;;8.07;3.40;;;;;;;;;;5089699;28;20425;-55
2022/01/06 09:38:54;;;;;;;16.00;4.27;;;;;;;;;;5084016;28;20453;-55
2022/01/06 09:41:20;;;;;;;9.70;4.23;;;;;;;;;;5089604;28;20475;-55
2022/01/06 09:43:47;;;;;;;6.93;3.57;;;;;;;;;;5071401;28;20198;-55
2022/01/06 09:46:14;;;;;;;8.17;3.97;;;;;;;;;;5088644;28;20409;-55
2022/01/06 09:48:41;;;;;;;12.07;4.63;;;;;;;;;;5092541;28;20409;-55
2022/01/06 09:51:08;;;;;;;8.20;4.10;;;;;;;;;;5102264;28;20977;-55
2022/01/06 09:53:34;;;;;;;6.63;4.13;;;;;;;;;;5082812;28;20504;-55
2022/01/06 09:56:01;;;;;;;10.93;4.20;;;;;;;;;;5061305;28;20193;-55
2022/01/06 09:58:31;;;;;;;8.83;4.10;;;;;;;;;;5064057;28;20429;-56
2022/01/06 10:00:58;;;;;;;8.73;3.10;;;;;;;;;;5054621;28;20930;-56
2022/01/06 10:03:35;;;;;;;6.60;3.93;;;;;;;;;;5048514;28;20260;-56
2022/01/06 10:06:12;;;;;;;10.37;3.83;;;;;;;;;;5067361;28;20715;-56
2022/01/06 10:08:38;;;;;;;7.90;3.70;;;;;;;;;;5060090;28;20426;-55
2022/01/06 10:11:10;;;;;;;8.63;3.80;;;;;;;;;;5061443;28;20420;-56
2022/01/06 10:13:37;;;;;;;12.77;3.97;;;;;;;;;;5057487;28;20188;-56
2022/01/06 10:16:13;;;;;;;10.70;3.93;;;;;;;;;;5075757;28;20417;-56
2022/01/06 10:18:39;;;;;;;11.33;3.93;;;;;;;;;;5077846;28;20427;-56
2022/01/06 10:21:14;;;;;;;10.43;4.37;;;;;;;;;;5068339;28;20206;-56
2022/01/06 10:23:40;;;;;;;13.70;3.87;;;;;;;;;;5063707;28;20465;-56
2022/01/06 10:26:13;;;;;;;9.60;4.33;;;;;;;;;;5066234;28;20784;-56
2022/01/06 10:28:39;;;;;;;8.50;4.80;;;;;;;;;;5062015;28;20478;-56
2022/01/06 10:31:06;;;;;;;8.23;3.80;;;;;;;;;;5083888;28;20177;-56
2022/01/06 10:33:38;;;;;;;7.73;4.30;;;;;;;;;;5066276;28;20423;-56
2022/01/06 10:36:07;;;;;;;10.97;3.70;;;;;;;;;;5067259;28;20461;-56
2022/01/06 10:38:33;;;;;;;8.00;4.03;;;;;;;;;;5063197;28;20196;-56
2022/01/06 10:41:29;;;;;;;11.87;4.90;;;;;;;;;;5067785;28;20211;-56
2022/01/06 10:43:56;;;;;;;7.30;4.03;;;;;;;;;;5048005;28;20185;-56
2022/01/06 10:46:38;;;;;;;12.07;4.33;;;;;;;;;;5066209;28;20639;-56
2022/01/06 10:49:09;;;;;;;12.33;4.80;;;;;;;;;;5067077;28;20172;-56
2022/01/06 10:51:45;;;;;;;8.57;4.37;;;;;;;;;;5066440;28;20655;-56
2022/01/06 10:54:15;;;;;;;7.30;4.20;;;;;;;;;;5064399;28;20277;-56
2022/01/06 10:56:41;;;;;;;11.10;4.47;;;;;;;;;;5067767;28;20188;-56
2022/01/06 10:59:07;;;;;;;7.40;4.70;;;;;;;;;;5072189;28;20184;-57
2022/01/06 11:01:34;;;;;;;13.27;6.03;;;;;;;;;;5062383;28;20203;-56
2022/01/06 11:04:00;;;;;;;8.30;4.30;;;;;;;;;;5083894;28;20571;-56
2022/01/06 11:06:27;;;;;;;10.10;4.67;;;;;;;;;;5085475;28;20752;-56
2022/01/06 11:08:53;;;;;;;11.90;5.20;;;;;;;;;;5087395;28;20176;-56
2022/01/06 11:11:44;;;;;;;12.33;4.93;;;;;;;;;;5087735;28;20175;-56
2022/01/06 11:14:15;;;;;;;9.70;4.53;;;;;;;;;;5061727;28;20308;-56
2022/01/06 11:16:41;;;;;;;10.47;5.37;;;;;;;;;;5083816;28;20262;-56
2022/01/06 11:19:09;;;;;;;14.33;4.87;;;;;;;;;;5078140;28;20654;-56
2022/01/06 11:21:39;;;;;;;6.80;4.73;;;;;;;;;;5082364;28;20211;-57
2022/01/06 11:24:16;;;;;;;9.33;4.90;;;;;;;;;;5087388;28;20654;-57
2022/01/06 11:26:43;;;;;;;7.60;4.97;;;;;;;;;;5088275;28;20712;-57
2022/01/06 11:29:09;;;;;;;12.63;5.23;;;;;;;;;;5087400;28;20568;-56
2022/01/06 11:31:37;;;;;;;10.53;5.23;;;;;;;;;;5086300;28;20184;-56
2022/01/06 11:34:14;;;;;;;10.20;4.63;;;;;;;;;;5069113;28;20191;-57
2022/01/06 11:36:40;;;;;;;11.67;4.47;;;;;;;;;;5090896;28;20187;-56
2022/01/06 11:39:07;;;;;;;8.80;4.90;;;;;;;;;;5091714;28;20175;-56
2022/01/06 11:41:39;;;;;;;9.60;4.80;;;;;;;;;;5063716;28;20249;-56
2022/01/06 11:44:18;;;;;;;8.47;4.87;;;;;;;;;;5084116;28;20179;-57
2022/01/06 11:46:45;;;;;;;11.90;4.93;;;;;;;;;;5072169;28;20219;-56
2022/01/06 11:49:11;;;;;;;13.37;4.87;;;;;;;;;;5089701;28;20207;-57
2022/01/06 11:51:38;;;;;;;11.60;5.13;;;;;;;;;;5090717;28;20188;-57
2022/01/06 11:54:13;;;;;;;12.70;5.27;;;;;;;;;;5076214;28;20216;-57
2022/01/06 11:56:45;;;;;;;9.90;5.23;;;;;;;;;;5064797;28;20204;-57
2022/01/06 11:59:11;;;;;;;8.77;5.50;;;;;;;;;;5063998;28;20181;-57
2022/01/06 12:01:48;;;;;;;10.60;5.37;;;;;;;;;;5067394;28;20251;-56
2022/01/06 12:04:15;;;;;;;10.43;5.87;;;;;;;;;;5071069;28;20222;-57
2022/01/06 12:06:41;;;;;;;9.60;4.60;;;;;;;;;;5067724;28;20192;-57
2022/01/06 12:09:18;;;;;;;14.20;5.33;;;;;;;;;;5049331;28;20359;-57
2022/01/06 12:11:44;;;;;;;15.23;5.40;;;;;;;;;;5067504;28;20227;-57
2022/01/06 12:14:11;;;;;;;8.43;4.70;;;;;;;;;;5066986;28;20195;-57
2022/01/06 12:16:38;;;;;;;9.93;5.50;;;;;;;;;;5059489;28;20173;-56
2022/01/06 12:19:30;;;;;;;9.40;5.03;;;;;;;;;;5065981;28;20176;-56
2022/01/06 12:21:56;;;;;;;11.67;4.93;;;;;;;;;;5065899;28;20731;-56
2022/01/06 12:24:22;;;;;;;8.57;5.03;;;;;;;;;;5068943;28;20173;-57
2022/01/06 12:26:48;;;;;;;9.93;4.70;;;;;;;;;;5068458;28;20195;-56
2022/01/06 12:29:15;;;;;;;7.93;5.83;;;;;;;;;;5068104;28;20219;-57
2022/01/06 12:31:42;;;;;;;7.63;4.73;;;;;;;;;;5067399;28;20231;-57
2022/01/06 12:34:10;;;;;;;7.07;4.60;;;;;;;;;;5065556;28;20173;-56
2022/01/06 12:36:38;;;;;;;10.00;5.57;;;;;;;;;;5082942;28;20268;-56
2022/01/06 12:39:08;;;;;;;10.77;5.50;;;;;;;;;;5069632;28;20172;-57
2022/01/06 12:41:34;;;;;;;7.50;5.63;;;;;;;;;;5069796;28;20200;-57
2022/01/06 12:44:01;;;;;;;8.87;5.90;;;;;;;;;;5067445;28;20656;-56
2022/01/06 12:46:34;;;;;;;11.10;6.23;;;;;;;;;;5066167;28;20414;-57
2022/01/06 12:49:01;;;;;;;8.20;5.20;;;;;;;;;;5068823;28;20656;-57
2022/01/06 12:51:28;;;;;;;10.77;5.63;;;;;;;;;;5057446;28;20275;-57
2022/01/06 12:54:00;;;;;;;11.80;5.90;;;;;;;;;;5069879;28;20662;-57
2022/01/06 12:56:29;;;;;;;10.63;6.33;;;;;;;;;;5068701;28;20204;-57
2022/01/06 12:58:56;;;;;;;12.80;5.43;;;;;;;;;;5059702;28;20172;-57
2022/01/06 13:01:22;;;;;;;7.43;5.87;;;;;;;;;;5068589;28;20212;-57
2022/01/06 13:03:53;;;;;;;12.63;6.17;;;;;;;;;;5067773;28;20184;-57
2022/01/06 13:06:20;;;;;;;11.23;7.00;;;;;;;;;;5069483;28;20185;-57
2022/01/06 13:08:50;;;;;;;12.30;7.13;;;;;;;;;;5059675;28;20181;-57
2022/01/06 13:11:17;;;;;;;11.43;6.43;;;;;;;;;;5052348;28;20165;-57
2022/01/06 13:13:51;;;;;;;14.40;6.70;;;;;;;;;;5061370;28;20185;-57
2022/01/06 13:16:19;;;;;;;14.07;8.03;;;;;;;;;;5062621;28;20269;-57
2022/01/06 13:18:56;;;;;;;12.07;7.17;;;;;;;;;;5061552;28;20648;-57
2022/01/06 13:21:28;;;;;;;11.27;7.70;;;;;;;;;;5062326;28;20196;-57
2022/01/06 13:23:55;;;;;;;11.53;8.20;;;;;;;;;;5067173;28;20256;-57
2022/01/06 13:26:21;;;;;;;13.73;7.57;;;;;;;;;;5057334;28;20189;-57
2022/01/06 13:28:57;;;;;;;14.53;8.40;;;;;;;;;;5067137;28;20255;-59
2022/01/06 13:31:24;;;;;;;19.50;10.30;;;;;;;;;;5067707;28;20180;-58
2022/01/06 13:33:56;;;;;;;19.17;9.83;;;;;;;;;;5066752;28;20172;-58
2022/01/06 13:36:33;;;;;;;28.40;10.33;;;;;;;;;;5068626;28;20267;-57
2022/01/06 13:39:07;;;;;;;15.73;9.93;;;;;;;;;;5063709;28;20447;-58
2022/01/06 13:41:34;;;;;;;16.30;9.63;;;;;;;;;;5063934;28;20208;-57
2022/01/06 13:44:05;;;;;;;18.77;9.87;;;;;;;;;;5064887;28;20173;-59
2022/01/06 13:46:41;;;;;;;21.00;9.53;;;;;;;;;;5061161;28;20930;-58
2022/01/06 13:51:52;;;;;;;14.27;8.17;;;;;;;;;;5068914;28;20180;-58
2022/01/06 13:54:20;;;;;;;14.43;8.83;;;;;;;;;;5066986;28;20219;-58
2022/01/06 13:56:46;;;;;;;22.97;9.57;;;;;;;;;;5076385;28;20689;-58
2022/01/06 13:59:14;;;;;;;18.93;8.07;;;;;;;;;;5067264;28;20858;-58
2022/01/06 14:01:44;;;;;;;14.80;8.00;;;;;;;;;;5048286;28;20248;-58
2022/01/06 14:04:21;;;;;;;19.50;9.40;;;;;;;;;;5047982;28;20180;-57
2022/01/06 14:06:48;;;;;;;17.03;9.07;;;;;;;;;;5066623;28;20283;-56
2022/01/06 14:09:16;;;;;;;12.97;7.50;;;;;;;;;;5066148;28;20192;-57
2022/01/06 14:11:42;;;;;;;18.77;8.07;;;;;;;;;;5067991;28;20216;-57
2022/01/06 14:14:08;;;;;;;16.97;7.97;;;;;;;;;;5065054;28;20195;-57
2022/01/06 14:16:34;;;;;;;14.57;7.87;;;;;;;;;;5056143;28;20202;-57
2022/01/06 14:19:00;;;;;;;16.47;7.33;;;;;;;;;;5065669;28;20629;-57
2022/01/06 14:21:26;;;;;;;12.43;6.97;;;;;;;;;;5066310;28;20646;-57
2022/01/06 14:23:52;;;;;;;12.37;6.40;;;;;;;;;;5047965;28;20184;-57
2022/01/06 14:26:18;;;;;;;20.23;7.07;;;;;;;;;;5049849;28;20382;-57
2022/01/06 14:28:44;;;;;;;10.87;6.17;;;;;;;;;;5067571;28;20249;-57
2022/01/06 14:31:11;;;;;;;14.77;6.90;;;;;;;;;;5063386;28;20180;-57
2022/01/06 14:33:41;;;;;;;14.77;7.13;;;;;;;;;;5061932;28;20263;-57
2022/01/06 14:36:08;;;;;;;14.83;7.10;;;;;;;;;;5063889;28;20200;-57
2022/01/06 14:38:35;;;;;;;10.37;5.83;;;;;;;;;;5064665;28;20184;-57
2022/01/06 14:41:01;;;;;;;8.47;5.83;;;;;;;;;;5071455;28;20282;-57
2022/01/06 14:43:27;;;;;;;15.73;6.40;;;;;;;;;;5063440;28;20477;-58
2022/01/06 14:45:54;;;;;;;19.20;6.03;;;;;;;;;;5063647;28;20183;-57
2022/01/06 14:48:20;;;;;;;12.87;6.17;;;;;;;;;;5065310;28;20180;-57